Time;durP1;ratioP1;P1;durP2;ratioP2;P2;SDS_P1;SDS_P2;PMS_P1;PMS_P2;Temp;Humidity;BMP_temperature;BMP_pressure;BME280_temperature;BME280_humidity;BME280_pressure;Samples;Min_cycle;Max_cycle;Signal;HPM_P1;HPM_P2
2022/11/29 00:01:14;;;;;;;9.75;5.70;;;;;;;1.64;81.26;101559.52;1673506;85;20984;-71
2022/11/29 00:03:41;;;;;;;12.53;6.00;;;;;;;1.65;81.23;101553.86;1672834;84;21012;-72
2022/11/29 00:06:14;;;;;;;9.45;5.60;;;;;;;1.61;81.14;101556.97;1668779;85;21085;-72
2022/11/29 00:08:41;;;;;;;8.88;6.00;;;;;;;1.58;81.16;101549.69;1666900;85;21027;-72
2022/11/29 00:14:14;;;;;;;9.05;5.70;;;;;;;1.56;81.15;101551.02;1660125;85;21161;-71
2022/11/29 00:16:41;;;;;;;9.03;5.33;;;;;;;1.57;81.22;101553.18;1674488;85;21350;-72
2022/11/29 00:19:10;;;;;;;12.58;6.28;;;;;;;1.57;81.27;101556.64;1661766;84;21082;-71
2022/11/29 00:21:37;;;;;;;13.08;6.72;;;;;;;1.56;81.25;101551.47;1663397;84;21525;-72
2022/11/29 00:24:04;;;;;;;11.10;6.92;;;;;;;1.56;81.25;101549.72;1664052;85;21621;-72
2022/11/29 00:26:30;;;;;;;13.00;6.28;;;;;;;1.55;81.21;101551.06;1668008;84;20965;-71
2022/11/29 00:28:58;;;;;;;10.40;6.65;;;;;;;1.54;81.21;101551.93;1652139;85;21125;-78
2022/11/29 00:31:31;;;;;;;11.55;6.33;;;;;;;1.51;81.12;101548.95;1670913;84;21031;-71
2022/11/29 00:34:00;;;;;;;10.90;6.78;;;;;;;1.51;81.23;101537.69;1655828;85;21048;-71
2022/11/29 00:36:27;;;;;;;8.90;5.65;;;;;;;1.52;81.22;101535.05;1655301;85;21516;-72
2022/11/29 00:38:54;;;;;;;9.18;5.92;;;;;;;1.52;81.22;101531.14;1637555;86;21095;-72
2022/11/29 00:41:20;;;;;;;8.45;5.22;;;;;;;1.52;81.10;101531.59;1637537;86;21015;-71
2022/11/29 00:43:47;;;;;;;9.10;6.15;;;;;;;1.50;81.04;101531.63;1611493;86;21134;-72
2022/11/29 00:46:13;;;;;;;8.48;5.58;;;;;;;1.49;81.03;101532.52;1629858;87;21062;-71
2022/11/29 00:48:40;;;;;;;9.13;5.87;;;;;;;1.49;81.05;101534.27;1610830;87;21854;-72
2022/11/29 00:51:06;;;;;;;6.62;4.92;;;;;;;1.46;80.92;101530.45;1627258;87;21017;-71
2022/11/29 00:53:33;;;;;;;8.13;5.62;;;;;;;1.46;80.92;101532.61;1640229;86;21071;-73
2022/11/29 00:56:00;;;;;;;7.33;4.78;;;;;;;1.43;80.78;101530.05;1635357;87;21096;-72
2022/11/29 00:58:27;;;;;;;7.72;5.05;;;;;;;1.42;80.79;101533.10;1633497;87;21020;-71
2022/11/29 01:00:54;;;;;;;8.53;4.90;;;;;;;1.39;80.72;101527.12;1626025;87;21534;-75
2022/11/29 01:03:21;;;;;;;7.33;4.95;;;;;;;1.38;80.69;101528.02;1635528;87;20980;-70
2022/11/29 01:05:49;;;;;;;7.37;5.03;;;;;;;1.38;80.68;101517.61;1630260;87;21023;-73
2022/11/29 01:08:16;;;;;;;7.92;5.40;;;;;;;1.38;80.73;101521.06;1621013;87;21032;-72
2022/11/29 01:10:43;;;;;;;6.20;4.47;;;;;;;1.40;80.75;101521.02;1631076;87;20996;-71
2022/11/29 01:13:10;;;;;;;6.55;5.10;;;;;;;1.40;80.74;101515.37;1637263;87;21971;-72
2022/11/29 01:15:37;;;;;;;8.03;5.40;;;;;;;1.40;80.74;101516.67;1625849;86;21039;-71
2022/11/29 01:18:03;;;;;;;6.97;5.08;;;;;;;1.41;80.71;101517.52;1630261;85;21098;-71
2022/11/29 01:20:30;;;;;;;7.20;5.53;;;;;;;1.40;80.68;101520.57;1632359;87;20997;-71
2022/11/29 01:22:57;;;;;;;7.03;5.00;;;;;;;1.39;80.67;101512.36;1627847;87;21067;-74
2022/11/29 01:25:24;;;;;;;8.00;5.97;;;;;;;1.40;80.66;101513.21;1637175;87;22589;-72
2022/11/29 01:27:51;;;;;;;9.13;5.90;;;;;;;1.39;80.61;101510.20;1630090;87;21586;-72
2022/11/29 01:30:17;;;;;;;9.13;5.37;;;;;;;1.39;80.61;101514.11;1612351;87;21044;-71
2022/11/29 01:32:44;;;;;;;8.00;6.67;;;;;;;1.40;80.56;101509.31;1628716;87;21072;-72
2022/11/29 01:35:10;;;;;;;9.38;6.05;;;;;;;1.38;80.54;101509.34;1633603;86;21024;-71
2022/11/29 01:37:38;;;;;;;9.45;6.45;;;;;;;1.38;80.55;101513.25;1627171;87;21916;-71
2022/11/29 01:40:07;;;;;;;9.80;6.55;;;;;;;1.36;80.50;101510.28;1653168;86;21013;-72
2022/11/29 01:42:33;;;;;;;7.70;5.87;;;;;;;1.35;80.51;101510.73;1645171;86;21051;-72
2022/11/29 01:45:05;;;;;;;8.68;7.00;;;;;;;1.34;80.49;101508.13;1652032;86;21103;-72
2022/11/29 01:47:31;;;;;;;9.45;6.58;;;;;;;1.30;80.48;101515.62;1649539;86;21439;-74
2022/11/29 01:49:57;;;;;;;10.93;7.20;;;;;;;1.28;80.50;101512.20;1637747;86;21769;-71
2022/11/29 01:52:28;;;;;;;7.83;6.05;;;;;;;1.26;80.46;101514.84;1653702;86;21071;-71
2022/11/29 01:54:57;;;;;;;8.48;6.35;;;;;;;1.25;80.49;101510.95;1633473;86;21034;-71
2022/11/29 01:57:24;;;;;;;8.28;6.30;;;;;;;1.26;80.50;101517.89;1627846;86;21551;-73
2022/11/29 01:59:55;;;;;;;8.73;6.03;;;;;;;1.26;80.50;101520.05;1672359;85;21054;-72
2022/11/29 02:02:35;;;;;;;6.65;5.10;;;;;;;1.26;80.51;101514.84;1681219;84;21924;-72
2022/11/29 02:05:02;;;;;;;8.48;6.35;;;;;;;1.27;80.52;101522.20;1664285;85;21024;-72
2022/11/29 02:07:29;;;;;;;7.33;5.60;;;;;;;1.25;80.44;101520.05;1670466;85;20960;-72
2022/11/29 02:09:55;;;;;;;7.45;6.55;;;;;;;1.25;80.46;101523.95;1668466;85;21097;-72
2022/11/29 02:13:00;;;;;;;9.15;6.75;;;;;;;1.23;80.42;101517.94;1670706;85;21374;-71
2022/11/29 02:16:06;;;;;;;12.43;7.25;;;;;;;1.24;80.49;101511.84;1661285;85;21763;-71
2022/11/29 02:19:02;;;;;;;9.70;6.62;;;;;;;1.23;80.43;101512.28;1678154;84;20875;-71
2022/11/29 02:21:41;;;;;;;10.20;7.60;;;;;;;1.20;80.43;101518.88;1666082;85;20983;-71
2022/11/29 02:24:47;;;;;;;10.60;7.37;;;;;;;1.18;80.42;101514.60;1652873;85;21085;-71
2022/11/29 02:27:58;;;;;;;12.15;7.60;;;;;;;1.18;80.48;101508.95;1677531;83;21068;-73
2022/11/29 02:31:15;;;;;;;12.73;7.85;;;;;;;1.19;80.50;101519.77;1694844;84;21869;-72
2022/11/29 02:34:09;;;;;;;9.30;7.15;;;;;;;1.18;80.49;101521.96;1690924;84;21402;-72
2022/11/29 02:36:59;;;;;;;11.43;7.65;;;;;;;1.19;80.51;101514.56;1685465;84;21462;-74
2022/11/29 02:40:02;;;;;;;11.85;7.80;;;;;;;1.20;80.54;101518.02;1673748;84;21007;-71
2022/11/29 02:42:54;;;;;;;11.22;7.90;;;;;;;1.20;80.50;101513.67;1669640;85;21031;-71
2022/11/29 02:45:41;;;;;;;9.68;7.33;;;;;;;1.21;80.46;101520.58;1664580;85;22334;-72
2022/11/29 02:48:51;;;;;;;10.93;7.58;;;;;;;1.21;80.47;101518.42;1671510;84;21007;-72
2022/11/29 02:51:24;;;;;;;11.55;7.92;;;;;;;1.24;80.49;101514.44;1652972;85;21433;-72
2022/11/29 02:54:27;;;;;;;10.82;7.30;;;;;;;1.22;80.42;101506.67;1652358;86;20968;-71
2022/11/29 02:57:29;;;;;;;10.63;7.70;;;;;;;1.21;80.39;101515.37;1655072;86;21048;-71
2022/11/29 03:00:09;;;;;;;11.90;7.95;;;;;;;1.21;80.35;101516.67;1661137;85;21869;-72
2022/11/29 03:02:59;;;;;;;10.93;8.63;;;;;;;1.21;80.30;101517.12;1653848;85;21111;-71
2022/11/29 03:05:43;;;;;;;14.18;8.20;;;;;;;1.20;80.30;101517.57;1647847;84;21017;-73
2022/11/29 03:08:29;;;;;;;12.65;8.70;;;;;;;1.21;80.27;101518.42;1658518;85;21566;-72
2022/11/29 03:11:05;;;;;;;12.88;8.85;;;;;;;1.20;80.18;101516.72;1649652;85;21469;-72
2022/11/29 03:13:56;;;;;;;12.05;8.65;;;;;;;1.19;80.11;101524.12;1663699;85;22556;-72
2022/11/29 03:16:45;;;;;;;12.70;8.35;;;;;;;1.18;80.15;101522.41;1655167;86;20956;-72
2022/11/29 03:19:49;;;;;;;11.33;8.60;;;;;;;1.18;80.11;101517.20;1666806;84;21467;-74
2022/11/29 03:22:45;;;;;;;12.82;9.33;;;;;;;1.19;80.08;101520.21;1651197;85;21008;-72
2022/11/29 03:25:39;;;;;;;14.15;9.48;;;;;;;1.17;80.04;101516.80;1656616;85;20979;-73
2022/11/29 03:28:33;;;;;;;13.43;9.05;;;;;;;1.18;80.07;101519.80;1651229;85;21888;-72
2022/11/29 03:31:30;;;;;;;15.63;9.70;;;;;;;1.18;80.01;101520.66;1652519;85;21027;-72
2022/11/29 03:34:32;;;;;;;12.53;8.85;;;;;;;1.19;79.99;101518.47;1658144;85;21067;-75
2022/11/29 03:37:23;;;;;;;13.38;9.38;;;;;;;1.19;79.97;101530.17;1666220;86;21066;-73
2022/11/29 03:40:03;;;;;;;14.35;10.00;;;;;;;1.17;79.89;101523.30;1650004;85;21466;-72
2022/11/29 03:42:39;;;;;;;13.95;9.93;;;;;;;1.15;79.85;101523.31;1662454;85;21939;-72
2022/11/29 03:45:30;;;;;;;13.70;9.53;;;;;;;1.14;79.84;101519.00;1659881;85;21131;-72
2022/11/29 03:48:13;;;;;;;13.85;9.18;;;;;;;1.12;79.79;101519.03;1661175;85;21079;-72
2022/11/29 03:50:53;;;;;;;14.33;9.15;;;;;;;1.12;79.73;101523.39;1677078;84;20968;-72
2022/11/29 03:53:54;;;;;;;12.53;8.70;;;;;;;1.10;79.67;101520.83;1670903;85;21109;-72
2022/11/29 03:56:30;;;;;;;14.55;9.78;;;;;;;1.09;79.61;101516.52;1673761;85;21878;-72
2022/11/29 03:59:24;;;;;;;12.33;8.50;;;;;;;1.08;79.57;101526.52;1670982;83;21031;-72
2022/11/29 04:02:30;;;;;;;17.13;10.00;;;;;;;1.08;79.56;101526.52;1664277;85;20991;-72
2022/11/29 04:05:29;;;;;;;14.50;9.38;;;;;;;1.08;79.47;101531.72;1662245;85;21508;-71
2022/11/29 04:08:09;;;;;;;16.27;9.78;;;;;;;1.08;79.45;101527.81;1682845;84;21581;-72
2022/11/29 04:10:51;;;;;;;14.47;9.68;;;;;;;1.10;79.40;101528.63;1677845;84;22122;-72
2022/11/29 04:13:34;;;;;;;15.80;10.25;;;;;;;1.09;79.32;101530.83;1662535;85;21139;-70
2022/11/29 04:16:19;;;;;;;;;;;;;;;1.10;79.30;101534.28;1654915;85;20983;-72
2022/11/29 04:19:31;;;;;;;16.15;10.40;;;;;;;1.10;79.25;101536.44;1672047;85;20535;-70
2022/11/29 04:22:42;;;;;;;16.57;10.23;;;;;;;1.05;79.20;101534.80;1661376;85;21525;-70
2022/11/29 04:25:34;;;;;;;16.70;10.85;;;;;;;0.99;79.31;101541.02;1660463;85;21760;-71
2022/11/29 04:28:39;;;;;;;16.60;10.40;;;;;;;0.98;79.37;101538.01;1660331;85;20971;-70
2022/11/29 04:31:29;;;;;;;17.05;10.32;;;;;;;1.01;79.43;101539.23;1654335;85;21025;-70
2022/11/29 04:34:22;;;;;;;14.70;9.38;;;;;;;1.03;79.47;101549.16;1651382;86;21043;-70
2022/11/29 04:37:29;;;;;;;17.48;11.05;;;;;;;1.06;79.48;101544.32;1651576;85;21120;-71
2022/11/29 04:40:20;;;;;;;13.38;9.28;;;;;;;1.06;79.50;101551.72;1638054;86;22633;-71
2022/11/29 04:43:29;;;;;;;15.40;9.58;;;;;;;1.07;79.48;101545.62;1631781;87;21020;-75
2022/11/29 04:46:23;;;;;;;15.13;10.20;;;;;;;1.07;79.38;101555.17;1614301;86;21045;-71
2022/11/29 04:49:16;;;;;;;16.48;9.90;;;;;;;1.07;79.35;101552.57;1615503;88;20988;-70
2022/11/29 04:51:51;;;;;;;14.17;9.83;;;;;;;1.10;79.32;101559.00;1609199;87;20995;-70
2022/11/29 04:54:49;;;;;;;13.70;9.75;;;;;;;1.06;79.21;101559.94;1622032;86;22033;-75
2022/11/29 04:57:48;;;;;;;13.88;9.35;;;;;;;1.06;79.21;101564.72;1597837;89;21030;-71
2022/11/29 05:00:21;;;;;;;14.43;9.18;;;;;;;1.08;79.18;101560.78;1624844;86;21087;-71
2022/11/29 05:02:57;;;;;;;14.60;9.63;;;;;;;1.06;79.13;101564.72;1626801;86;21075;-67
2022/11/29 05:05:37;;;;;;;14.28;9.58;;;;;;;1.05;79.12;101568.19;1612249;87;21119;-69
2022/11/29 05:08:47;;;;;;;11.38;9.18;;;;;;;1.04;79.02;101569.08;1621631;87;21712;-69
2022/11/29 05:11:49;;;;;;;14.80;9.13;;;;;;;1.02;79.01;101559.16;1616023;86;21081;-69
2022/11/29 05:14:37;;;;;;;11.45;8.85;;;;;;;1.02;78.96;101568.70;1610146;87;21023;-80
2022/11/29 05:17:56;;;;;;;11.38;8.38;;;;;;;1.02;78.91;101570.00;1630345;87;21060;-69
2022/11/29 05:20:37;;;;;;;15.58;9.30;;;;;;;1.02;78.91;101577.81;1639974;87;21172;-70
2022/11/29 05:23:25;;;;;;;13.72;8.43;;;;;;;1.02;78.88;101574.77;1629044;86;22252;-70
2022/11/29 05:26:02;;;;;;;14.13;8.18;;;;;;;1.04;78.88;101577.33;1636545;87;20974;-69
2022/11/29 05:28:57;;;;;;;12.73;8.48;;;;;;;1.04;78.85;101582.08;1636440;87;21057;-71
2022/11/29 05:31:47;;;;;;;12.60;7.42;;;;;;;1.05;78.78;101592.05;1633396;86;21548;-69
2022/11/29 05:34:48;;;;;;;12.82;8.00;;;;;;;1.04;78.67;101591.19;1636379;87;21145;-69
2022/11/29 05:37:32;;;;;;;13.50;8.65;;;;;;;1.02;78.59;101586.92;1639155;87;21956;-69
2022/11/29 05:40:28;;;;;;;14.13;8.78;;;;;;;1.01;78.53;101595.16;1645527;86;21065;-69
2022/11/29 05:43:06;;;;;;;10.90;8.53;;;;;;;1.04;78.54;101597.70;1641845;85;21119;-69
2022/11/29 05:46:09;;;;;;;12.75;9.18;;;;;;;1.07;78.55;101600.70;1665637;84;21144;-69
2022/11/29 05:48:50;;;;;;;11.65;8.68;;;;;;;1.07;78.49;101612.41;1680723;84;21024;-68
2022/11/29 05:51:34;;;;;;;10.60;8.00;;;;;;;1.06;78.47;101612.86;1648160;84;22606;-69
2022/11/29 05:54:25;;;;;;;;;;;;;;;1.07;78.45;101613.71;1697425;84;20968;-69
2022/11/29 05:57:13;;;;;;;13.35;8.20;;;;;;;1.08;78.41;101616.28;1657876;85;20148;-68
2022/11/29 05:59:41;;;;;;;12.65;7.92;;;;;;;1.07;78.38;101611.97;1685275;83;21133;-72
2022/11/29 06:02:28;;;;;;;12.00;7.72;;;;;;;1.07;78.29;101618.91;1682371;83;21052;-69
2022/11/29 06:05:20;;;;;;;13.62;8.30;;;;;;;1.04;78.25;101622.86;1682583;83;23163;-69
2022/11/29 06:08:07;;;;;;;11.00;7.42;;;;;;;1.03;78.18;101618.55;1681957;84;21007;-69
2022/11/29 06:10:38;;;;;;;11.75;8.03;;;;;;;1.01;78.15;101619.88;1652461;86;21481;-69
2022/11/29 06:13:49;;;;;;;11.80;8.43;;;;;;;0.99;78.14;101621.66;1679190;83;21566;-68
2022/11/29 08:29:10;;;;;;;30.72;8.18;;;;;;;0.96;79.26;101632.55;1636343;86;21792;-82
2022/11/29 08:31:37;;;;;;;12.40;8.05;;;;;;;0.96;79.31;101623.45;1645531;86;21435;-79
2022/11/29 08:34:05;;;;;;;11.57;7.37;;;;;;;0.89;79.31;101614.93;1656607;85;21521;-78
2022/11/29 08:36:32;;;;;;;14.10;7.95;;;;;;;0.90;79.44;101620.98;1656101;86;21089;-76
2022/11/29 08:39:01;;;;;;;14.80;8.48;;;;;;;0.91;79.50;101617.50;1658228;85;20976;-87
2022/11/29 08:41:27;;;;;;;14.47;8.90;;;;;;;0.94;79.51;101618.28;1627399;86;22261;-82
2022/11/29 08:43:53;;;;;;;12.43;8.03;;;;;;;0.96;79.57;101620.84;1659377;86;21025;-83
2022/11/29 08:46:21;;;;;;;13.18;8.00;;;;;;;0.96;79.63;101616.50;1659411;86;20895;-79
2022/11/29 08:48:47;;;;;;;12.58;8.00;;;;;;;0.99;79.71;101613.00;1654134;86;20986;-79
2022/11/29 08:51:14;;;;;;;16.95;8.13;;;;;;;0.97;79.72;101613.48;1667486;86;21101;-77
2022/11/29 08:53:41;;;;;;;11.75;7.92;;;;;;;0.95;79.75;101610.03;1707119;83;21748;-82
2022/11/29 08:56:13;;;;;;;14.33;7.92;;;;;;;0.95;79.82;101606.13;1702134;84;20969;-77
2022/11/29 08:58:40;;;;;;;13.78;8.73;;;;;;;0.97;79.85;101606.98;1688249;84;20980;-74
2022/11/29 09:01:14;;;;;;;11.22;7.45;;;;;;;0.96;79.85;101607.84;1702332;83;21527;-81
2022/11/29 09:06:33;;;;;;;16.12;8.70;;;;;;;0.93;79.87;101597.51;1698678;84;22551;-75
2022/11/29 09:09:00;;;;;;;14.25;8.38;;;;;;;0.96;79.98;101596.98;1679467;84;20966;-73
2022/11/29 09:11:27;;;;;;;11.63;7.95;;;;;;;0.98;79.96;101593.94;1702767;83;21454;-84
2022/11/29 09:13:57;;;;;;;12.63;8.18;;;;;;;0.97;79.96;101595.27;1690761;84;20994;-77
2022/11/29 09:16:26;;;;;;;13.68;8.10;;;;;;;0.98;80.01;101584.83;1698258;84;21102;-77
2022/11/29 09:18:54;;;;;;;11.95;7.58;;;;;;;1.01;80.00;101576.95;1701613;83;22481;-89
2022/11/29 09:21:26;;;;;;;18.20;8.15;;;;;;;0.98;79.98;101577.03;1690260;84;21018;-80
2022/11/29 09:23:57;;;;;;;14.18;8.30;;;;;;;0.96;79.94;101575.33;1703078;84;21037;-86
2022/11/29 09:26:22;;;;;;;12.88;7.90;;;;;;;0.96;80.00;101581.83;1701989;84;21056;-83
2022/11/29 09:28:48;;;;;;;13.45;8.75;;;;;;;0.96;79.97;101572.27;1706834;84;20973;-79
2022/11/29 09:31:15;;;;;;;11.12;7.65;;;;;;;0.97;80.01;101574.02;1710588;84;21767;-82
2022/11/29 09:33:41;;;;;;;11.85;7.00;;;;;;;0.98;80.03;101569.22;1705211;83;21112;-92
2022/11/29 09:36:09;;;;;;;10.85;7.35;;;;;;;1.01;80.02;101578.70;1705512;84;20968;-84
2022/11/29 09:38:36;;;;;;;13.43;7.33;;;;;;;1.00;79.97;101572.64;1710771;84;21017;-85
2022/11/29 09:41:21;;;;;;;9.30;7.22;;;;;;;1.00;79.92;101571.34;1702458;84;20976;-88
2022/11/29 09:44:02;;;;;;;13.18;7.53;;;;;;;1.01;79.92;101569.59;1707190;83;21753;-87
2022/11/29 09:47:10;;;;;;;13.35;6.95;;;;;;;1.01;79.89;101574.80;1695145;84;20953;-88
2022/11/29 09:50:03;;;;;;;11.03;6.30;;;;;;;1.01;79.87;101573.50;1700310;84;21015;-82
2022/11/29 09:53:04;;;;;;;11.78;6.72;;;;;;;0.99;79.84;101576.14;1652374;85;21218;-83
2022/11/29 09:55:56;;;;;;;9.65;6.53;;;;;;;1.00;79.89;101577.84;1680933;84;20961;-78
2022/11/29 09:58:28;;;;;;;12.60;7.12;;;;;;;1.03;79.95;101571.72;1665576;84;41240;-78
2022/11/29 10:00:59;;;;;;;75.52;13.08;;;;;;;1.01;79.89;101575.66;1694899;84;21527;-82
2022/11/29 10:03:44;;;;;;;13.65;7.50;;;;;;;0.98;79.85;101573.58;1699701;84;21016;-81
2022/11/29 10:06:32;;;;;;;13.88;7.65;;;;;;;0.95;79.88;101574.47;1668801;86;21044;-80
2022/11/29 10:09:09;;;;;;;9.95;6.83;;;;;;;0.95;79.90;101572.31;1676272;84;21442;-81
2022/11/29 10:11:41;;;;;;;13.03;6.78;;;;;;;0.94;79.94;101572.76;1704723;84;21861;-82
2022/11/29 10:14:21;;;;;;;8.68;5.85;;;;;;;0.91;79.89;101562.87;1699161;84;21024;-86
2022/11/29 10:16:56;;;;;;;11.00;5.90;;;;;;;0.91;79.94;101553.77;1705693;84;20956;-84
2022/11/29 10:19:34;;;;;;;10.05;6.35;;;;;;;0.94;79.97;101553.70;1704979;84;21059;-74
2022/11/29 10:22:08;;;;;;;9.85;6.40;;;;;;;0.91;79.95;101547.27;1672923;84;20992;-78
2022/11/29 10:24:35;;;;;;;13.90;8.05;;;;;;;0.90;80.07;101546.86;1698659;84;21967;-78
2022/11/29 10:27:03;;;;;;;9.93;7.05;;;;;;;0.93;80.14;101550.69;1704501;83;20976;-85
2022/11/29 10:29:30;;;;;;;9.58;6.30;;;;;;;0.97;80.18;101552.35;1674617;84;21473;-88
2022/11/29 10:31:58;;;;;;;9.60;5.83;;;;;;;0.97;80.15;101551.91;1674633;84;21257;-85
2022/11/29 10:34:25;;;;;;;9.95;5.97;;;;;;;0.94;80.11;101545.89;1697860;83;21044;-85
2022/11/29 10:36:58;;;;;;;11.57;5.90;;;;;;;0.89;80.09;101546.00;1714768;83;21937;-83
2022/11/29 10:39:35;;;;;;;10.10;6.87;;;;;;;0.83;80.06;101544.81;1715476;83;21017;-86
2022/11/29 10:42:02;;;;;;;10.72;6.00;;;;;;;0.80;80.15;101546.19;1716011;83;20976;-84
2022/11/29 10:44:29;;;;;;;11.88;6.80;;;;;;;0.79;80.26;101544.03;1715136;83;20985;-83
2022/11/29 10:46:56;;;;;;;11.57;7.08;;;;;;;0.79;80.30;101539.28;1693193;83;21032;-82
2022/11/29 10:49:26;;;;;;;11.70;6.97;;;;;;;0.81;80.31;101534.45;1680051;85;22026;-82
2022/11/29 10:51:52;;;;;;;10.98;6.50;;;;;;;0.83;80.39;101537.02;1705195;84;21005;-82
2022/11/29 10:54:42;;;;;;;11.28;6.80;;;;;;;0.84;80.42;101523.97;1702872;84;20993;-81
2022/11/29 10:57:18;;;;;;;11.85;6.33;;;;;;;0.83;80.37;101531.81;1684354;84;21071;-81
2022/11/29 11:00:08;;;;;;;12.63;7.03;;;;;;;0.80;80.39;101529.28;1705335;83;21052;-81
2022/11/29 11:02:35;;;;;;;12.50;6.87;;;;;;;0.80;80.45;101530.59;1709375;83;21986;-83
2022/11/29 11:05:02;;;;;;;11.30;7.28;;;;;;;0.81;80.48;101534.45;1708836;84;20984;-80
2022/11/29 11:07:38;;;;;;;12.93;7.05;;;;;;;0.84;80.53;101533.52;1706968;82;20989;-79
2022/11/29 11:10:28;;;;;;;14.25;7.65;;;;;;;0.87;80.55;101536.08;1704257;83;20985;-78
2022/11/29 11:13:03;;;;;;;14.90;7.33;;;;;;;0.85;80.55;101534.78;1684323;83;21104;-77
2022/11/29 11:15:31;;;;;;;13.28;7.45;;;;;;;0.89;80.60;101534.30;1703227;83;22477;-77
2022/11/29 11:18:03;;;;;;;13.10;7.15;;;;;;;0.86;80.59;101529.99;1693329;83;21372;-80
2022/11/29 11:20:36;;;;;;;11.60;7.30;;;;;;;0.82;80.57;101527.06;1710101;84;21395;-80
2022/11/29 11:23:26;;;;;;;12.40;6.80;;;;;;;0.81;80.65;101523.19;1709322;83;20985;-77
2022/11/29 11:26:04;;;;;;;13.70;7.37;;;;;;;0.82;80.71;101522.30;1699975;83;21035;-76
2022/11/29 11:28:53;;;;;;;13.35;7.37;;;;;;;0.82;80.68;101530.10;1683908;83;22517;-77
2022/11/29 11:31:34;;;;;;;16.75;7.40;;;;;;;0.80;80.62;101526.69;1675941;84;21141;-76
2022/11/29 11:34:36;;;;;;;13.45;6.97;;;;;;;0.75;80.56;101530.66;1721291;83;21126;-76
2022/11/29 11:37:24;;;;;;;12.28;6.75;;;;;;;0.74;80.69;101535.45;1667358;83;21028;-76
2022/11/29 11:39:55;;;;;;;13.68;7.45;;;;;;;0.74;80.67;101530.70;1719555;82;21020;-74
2022/11/29 11:42:37;;;;;;;15.30;8.58;;;;;;;0.74;80.64;101524.20;1720624;83;21809;-76
2022/11/29 11:45:11;;;;;;;;;;;;;;;0.70;80.64;101526.02;1720316;82;20996;-76
2022/11/29 11:47:48;;;;;;;16.85;9.15;;;;;;;0.73;80.72;101523.79;1718130;83;20149;-78
2022/11/29 11:50:30;;;;;;;16.50;8.08;;;;;;;0.72;80.69;101527.28;1679275;83;21033;-84
2022/11/29 11:53:01;;;;;;;21.50;13.90;;;;;;;0.73;80.69;101527.24;1696998;83;21006;-83
2022/11/29 11:55:38;;;;;;;16.23;8.10;;;;;;;0.75;80.69;101524.61;1698096;83;21916;-82
2022/11/29 11:58:16;;;;;;;11.28;6.92;;;;;;;0.74;80.65;101526.80;1697168;83;21050;-81
2022/11/29 12:00:55;;;;;;;13.58;7.70;;;;;;;0.74;80.62;101532.00;1711021;83;21636;-81
2022/11/29 12:04:00;;;;;;;13.20;6.90;;;;;;;0.73;80.58;101529.84;1688018;84;21444;-76
2022/11/29 12:06:48;;;;;;;16.00;8.23;;;;;;;0.75;80.59;101531.11;1712795;83;21028;-75
2022/11/29 12:09:26;;;;;;;11.33;6.80;;;;;;;0.77;80.63;101538.42;1715658;83;22541;-74
2022/11/29 12:12:14;;;;;;;12.68;6.80;;;;;;;0.78;80.56;101535.82;1699319;83;21421;-74
2022/11/29 12:14:52;;;;;;;11.08;7.03;;;;;;;0.79;80.51;101547.08;1724407;83;20969;-73
2022/11/29 12:17:41;;;;;;;13.55;7.20;;;;;;;0.79;80.45;101544.03;1696540;82;20996;-73
2022/11/29 12:20:27;;;;;;;12.07;6.78;;;;;;;0.79;80.39;101541.44;1677137;83;20996;-74
2022/11/29 12:23:14;;;;;;;11.65;6.83;;;;;;;0.80;80.34;101543.59;1721219;83;22027;-75
2022/11/29 12:25:51;;;;;;;12.03;7.15;;;;;;;0.80;80.25;101549.64;1728444;82;20999;-75
2022/11/29 12:28:19;;;;;;;10.28;6.65;;;;;;;0.79;80.17;101545.78;1728077;83;20976;-75
2022/11/29 12:31:06;;;;;;;10.48;6.90;;;;;;;0.80;80.14;101555.29;1723356;83;21423;-76
2022/11/29 12:34:05;;;;;;;11.93;6.58;;;;;;;0.81;80.09;101566.95;1683284;83;21142;-76
2022/11/29 12:37:06;;;;;;;9.93;6.03;;;;;;;0.84;80.04;101558.23;1665757;85;21870;-75
2022/11/29 12:40:04;;;;;;;10.63;6.55;;;;;;;0.85;79.96;101561.24;1677039;85;22184;-77
2022/11/29 12:43:16;;;;;;;13.15;6.65;;;;;;;0.81;79.81;101568.70;1715860;83;20972;-76
2022/11/29 12:46:09;;;;;;;8.38;5.53;;;;;;;0.78;79.65;101573.53;1657795;83;20946;-77
2022/11/29 12:49:09;;;;;;;9.30;6.00;;;;;;;0.74;79.53;101559.30;1709534;83;21423;-76
2022/11/29 12:52:03;;;;;;;10.25;6.03;;;;;;;0.70;79.49;101561.56;1680270;84;21946;-74
2022/11/29 12:55:04;;;;;;;8.78;6.17;;;;;;;0.72;79.48;101560.64;1683245;84;20946;-76
2022/11/29 12:57:46;;;;;;;10.50;6.55;;;;;;;0.71;79.32;101560.67;1675711;83;20991;-78
2022/11/29 13:00:15;;;;;;;10.43;7.42;;;;;;;0.69;79.26;101562.45;1716866;81;21063;-78
2022/11/29 13:03:05;;;;;;;9.43;6.50;;;;;;;0.66;79.17;101563.34;1710807;83;21036;-80
2022/11/29 13:05:49;;;;;;;8.70;5.95;;;;;;;0.68;79.14;101558.14;1705490;83;21813;-76
2022/11/29 13:08:42;;;;;;;8.03;5.35;;;;;;;0.68;79.12;101563.34;1689151;83;21146;-76
2022/11/29 13:11:24;;;;;;;8.33;5.60;;;;;;;0.68;79.07;101560.75;1715532;82;21479;-75
2022/11/29 13:14:08;;;;;;;11.25;6.50;;;;;;;0.68;79.00;101565.50;1715698;82;21008;-75
2022/11/29 13:17:01;;;;;;;9.78;6.42;;;;;;;0.68;78.96;101565.95;1725712;82;21022;-72
2022/11/29 13:19:54;;;;;;;11.68;6.60;;;;;;;0.69;78.94;101558.55;1712883;82;22402;-75
2022/11/29 13:22:42;;;;;;;14.45;6.42;;;;;;;0.71;78.92;101567.17;1683822;84;21117;-75
2022/11/29 13:25:20;;;;;;;9.53;6.05;;;;;;;0.69;78.83;101555.51;1677933;84;21577;-72
2022/11/29 13:28:04;;;;;;;11.25;6.85;;;;;;;0.70;78.81;101555.92;1680714;84;21032;-74
2022/11/29 13:30:33;;;;;;;43.05;7.35;;;;;;;0.71;78.80;101556.77;1683827;83;21063;-73
2022/11/29 13:33:26;;;;;;;12.03;7.10;;;;;;;0.72;78.73;101559.78;1706992;83;22583;-74
2022/11/29 13:36:10;;;;;;;12.35;6.95;;;;;;;0.75;78.75;101566.22;1711440;83;21512;-75
2022/11/29 13:38:50;;;;;;;11.20;7.00;;;;;;;0.78;78.77;101577.43;1681272;85;21063;-76
2022/11/29 13:42:11;;;;;;;11.60;7.58;;;;;;;0.80;78.67;101580.00;1715935;83;21064;-77
2022/11/29 13:44:52;;;;;;;12.28;7.45;;;;;;;0.79;78.60;101585.64;1709502;82;21078;-84
2022/11/29 13:47:19;;;;;;;10.93;7.00;;;;;;;0.77;78.55;101577.44;1682649;83;21889;-85
2022/11/29 13:50:06;;;;;;;13.18;7.37;;;;;;;0.72;78.47;101578.84;1713486;83;21008;-82
2022/11/29 13:52:47;;;;;;;11.18;6.87;;;;;;;0.67;78.46;101581.95;1709379;82;21068;-85
2022/11/29 13:55:21;;;;;;;15.30;8.30;;;;;;;0.69;78.59;101580.21;1709398;83;21047;-83
2022/11/29 13:58:06;;;;;;;12.82;8.40;;;;;;;0.68;78.59;101579.80;1715060;83;21504;-77
2022/11/29 14:00:47;;;;;;;15.72;8.25;;;;;;;0.69;78.57;101576.31;1713492;81;22491;-74
2022/11/29 14:03:28;;;;;;;13.13;7.87;;;;;;;0.67;78.59;101585.86;1712323;82;21373;-72
2022/11/29 14:06:11;;;;;;;16.95;8.40;;;;;;;0.67;78.56;101591.50;1711557;82;21040;-74
2022/11/29 14:09:14;;;;;;;;;;;;;;;0.66;78.60;101586.75;1709815;83;21676;-76
2022/11/29 14:11:48;;;;;;;13.83;7.72;;;;;;;0.69;78.66;101581.95;1712854;82;20390;-74
2022/11/29 14:14:37;;;;;;;13.05;8.00;;;;;;;0.71;78.67;101580.17;1685837;85;21854;-76
2022/11/29 14:17:05;;;;;;;15.30;9.18;;;;;;;0.74;78.72;101574.91;1703007;83;21036;-77
2022/11/29 14:19:38;;;;;;;14.93;9.43;;;;;;;0.71;78.62;101578.43;1651339;84;21344;-76
2022/11/29 14:22:18;;;;;;;15.88;8.53;;;;;;;0.71;78.61;101574.53;1688906;84;21052;-77
2022/11/29 14:24:58;;;;;;;11.50;7.75;;;;;;;0.74;78.60;101584.01;1678439;84;22325;-79
2022/11/29 14:27:30;;;;;;;14.33;7.70;;;;;;;0.75;78.62;101582.67;1693195;83;21811;-76
2022/11/29 14:29:57;;;;;;;13.72;7.28;;;;;;;0.71;78.57;101593.18;1658075;83;21024;-78
2022/11/29 14:32:41;;;;;;;16.27;8.40;;;;;;;0.70;78.52;101594.07;1676180;83;20978;-78
2022/11/29 14:35:13;;;;;;;13.60;7.30;;;;;;;0.70;78.48;101591.47;1681871;83;21005;-75
2022/11/29 14:37:54;;;;;;;14.20;7.53;;;;;;;0.71;78.50;101595.78;1682674;84;20968;-74
2022/11/29 14:40:40;;;;;;;12.10;7.75;;;;;;;0.70;78.45;101593.63;1659659;84;21962;-74
2022/11/29 14:43:34;;;;;;;12.20;7.62;;;;;;;0.70;78.46;101595.37;1678699;84;21032;-75
2022/11/29 14:46:24;;;;;;;13.03;7.47;;;;;;;0.72;78.43;101585.79;1683314;83;21036;-75
2022/11/29 14:48:59;;;;;;;11.03;7.00;;;;;;;0.72;78.41;101583.19;1679459;83;20985;-79